Time;durP1;ratioP1;P1;durP2;ratioP2;P2;SDS_P1;SDS_P2;PMS_P1;PMS_P2;Temp;Humidity;BMP_temperature;BMP_pressure;BME280_temperature;BME280_humidity;BME280_pressure;Samples;Min_cycle;Max_cycle;Signal;HPM_P1;HPM_P2
2024/01/29 00:00:17;;;;;;;13.90;10.98;;;9.20;99.90;;;9.54;76.00;102257.34;4991981;28;20044;-68
2024/01/29 00:02:45;;;;;;;16.42;11.63;;;9.30;99.90;;;9.47;76.05;102247.50;4990983;28;20035;-67
2024/01/29 00:05:14;;;;;;;15.85;11.52;;;9.30;99.90;;;9.46;76.61;102248.38;4991891;28;20038;-67
2024/01/29 00:07:42;;;;;;;15.80;11.27;;;9.20;99.90;;;9.34;76.83;102255.13;4991852;28;20046;-66
2024/01/29 00:10:11;;;;;;;15.20;11.63;;;9.20;99.90;;;9.35;77.05;102249.88;4992390;28;20096;-67
2024/01/29 00:12:40;;;;;;;14.68;11.18;;;9.10;99.90;;;9.29;77.15;102252.38;4991609;28;20054;-67
2024/01/29 00:15:09;;;;;;;14.95;12.13;;;9.10;99.90;;;9.43;76.84;102248.31;4992236;28;20050;-67
2024/01/29 00:17:37;;;;;;;14.80;11.93;;;9.20;99.90;;;9.49;76.75;102247.53;4992037;28;20038;-67
2024/01/29 00:20:08;;;;;;;16.95;12.00;;;9.20;99.90;;;9.49;76.70;102248.44;4991696;28;20653;-67
2024/01/29 00:22:36;;;;;;;;;;;9.30;99.90;;;9.57;76.64;102248.59;4992730;28;20042;-66
2024/01/29 00:25:07;;;;;;;13.05;10.95;;;9.30;99.90;;;9.57;76.26;102253.88;4990917;28;19922;-67
2024/01/29 00:27:35;;;;;;;15.10;11.73;;;9.30;99.90;;;9.53;76.69;102252.03;4993021;28;20101;-67
2024/01/29 00:30:08;;;;;;;17.00;11.90;;;9.30;99.90;;;9.57;76.96;102248.59;4992404;28;20518;-67
2024/01/29 00:32:36;;;;;;;14.05;11.60;;;9.30;99.90;;;9.56;76.64;102253.00;4993007;28;20042;-67
2024/01/29 00:35:06;;;;;;;15.50;11.82;;;9.30;99.90;;;9.65;76.42;102250.56;4993392;28;20085;-67
2024/01/29 00:37:34;;;;;;;14.18;12.05;;;9.30;99.90;;;9.68;76.21;102261.19;4993678;28;20054;-67
2024/01/29 00:40:04;;;;;;;13.30;11.57;;;9.40;99.90;;;9.70;76.16;102264.75;4993705;28;20081;-67
2024/01/29 00:42:33;;;;;;;15.93;11.63;;;9.40;99.90;;;9.74;76.04;102266.59;4993412;28;20038;-68
2024/01/29 00:45:02;;;;;;;14.23;11.00;;;9.40;99.90;;;9.77;76.03;102269.34;4993259;28;20081;-67
2024/01/29 00:47:32;;;;;;;14.60;11.30;;;9.50;99.90;;;9.83;75.50;102266.78;4993544;28;20042;-67
2024/01/29 00:50:00;;;;;;;15.27;11.88;;;9.50;99.90;;;9.83;75.56;102265.91;4993268;28;20101;-67
2024/01/29 00:52:30;;;;;;;15.57;11.90;;;9.50;99.90;;;9.76;75.50;102267.53;4992290;28;20042;-67
2024/01/29 00:54:59;;;;;;;14.73;11.88;;;9.50;99.90;;;9.51;75.76;102262.56;4993771;28;20097;-67
2024/01/29 00:57:28;;;;;;;13.45;11.63;;;9.40;99.90;;;9.67;76.23;102266.44;4992459;28;20058;-67
2024/01/29 00:59:56;;;;;;;13.23;11.52;;;9.40;99.90;;;9.69;75.93;102267.38;4993799;28;20042;-67
2024/01/29 01:02:25;;;;;;;12.40;10.57;;;9.40;99.90;;;9.68;75.70;102277.03;4992175;28;20047;-67
2024/01/29 01:04:54;;;;;;;15.65;12.27;;;9.40;99.90;;;9.66;75.73;102276.13;4993098;28;20043;-67
2024/01/29 01:07:23;;;;;;;15.98;11.75;;;9.40;99.90;;;9.60;76.03;102270.69;4993448;28;20046;-67
2024/01/29 01:09:51;;;;;;;16.17;11.73;;;9.30;99.90;;;9.61;76.30;102282.16;4992209;28;20109;-67
2024/01/29 01:12:20;;;;;;;15.40;11.70;;;9.30;99.90;;;9.40;76.38;102250.00;4992954;28;20046;-67
2024/01/29 01:14:48;;;;;;;14.18;11.80;;;9.30;99.90;;;9.58;76.22;102282.09;4993082;28;20058;-67
2024/01/29 01:17:17;;;;;;;14.85;11.43;;;9.30;99.90;;;9.56;76.28;102284.69;4993003;28;20483;-67
2024/01/29 01:19:45;;;;;;;15.98;11.50;;;9.30;99.90;;;9.63;75.99;102291.91;4993239;28;20049;-67
2024/01/29 01:22:15;;;;;;;14.27;11.48;;;9.30;99.90;;;9.65;76.03;102287.56;4992971;28;20542;-67
2024/01/29 01:24:44;;;;;;;16.40;11.43;;;9.30;99.90;;;9.70;75.61;102283.25;4991954;28;20046;-67
2024/01/29 01:27:16;;;;;;;15.02;11.68;;;9.40;99.90;;;9.75;75.86;102278.06;4992859;28;20046;-67
2024/01/29 01:29:44;;;;;;;15.50;12.07;;;9.40;99.90;;;9.30;75.88;102198.72;4992919;28;20542;-67
2024/01/29 01:32:13;;;;;;;15.48;11.55;;;9.50;99.90;;;9.72;75.77;102270.97;4992960;28;20046;-67
2024/01/29 01:34:41;;;;;;;14.52;11.63;;;9.40;99.90;;;9.69;76.28;102268.28;4992903;28;20046;-67
2024/01/29 01:37:10;;;;;;;13.98;12.05;;;9.40;99.90;;;9.66;76.10;102264.63;4995604;28;20050;-67
2024/01/29 01:39:41;;;;;;;12.48;11.15;;;9.40;99.90;;;9.66;75.96;102265.53;4996881;28;20046;-67
2024/01/29 01:42:09;;;;;;;14.95;11.70;;;9.30;99.90;;;9.65;76.11;102271.69;4996857;28;20048;-67
2024/01/29 01:44:38;;;;;;;14.95;11.77;;;9.30;99.90;;;9.69;76.20;102270.00;4996945;28;20050;-68
2024/01/29 01:47:06;;;;;;;13.77;11.52;;;9.40;99.90;;;9.74;76.23;102285.09;4996238;28;20121;-67
2024/01/29 01:49:35;;;;;;;16.00;11.65;;;9.40;99.90;;;9.74;76.41;102274.53;4996261;28;20062;-67
2024/01/29 01:52:04;;;;;;;15.07;12.10;;;9.40;99.90;;;9.75;76.13;102286.91;4996549;28;20038;-67
2024/01/29 01:54:32;;;;;;;14.23;12.25;;;9.40;99.90;;;9.79;76.06;102277.28;4996508;28;20052;-67
2024/01/29 01:57:04;;;;;;;14.52;11.60;;;9.40;99.90;;;9.61;76.29;102256.63;4996242;28;20393;-67
2024/01/29 01:59:34;;;;;;;14.75;12.43;;;9.40;99.90;;;9.07;76.33;102153.34;4996170;28;20116;-67
2024/01/29 02:02:03;;;;;;;;;;;9.40;99.90;;;9.64;77.08;102271.69;4996579;28;20057;-67
2024/01/29 02:04:32;;;;;;;15.57;12.52;;;9.40;99.90;;;9.65;77.14;102265.50;4995988;28;19945;-67
2024/01/29 02:07:01;;;;;;;15.23;12.32;;;9.40;99.90;;;9.62;77.35;102276.03;4996078;28;20133;-67
2024/01/29 02:09:30;;;;;;;16.17;12.30;;;9.30;99.90;;;9.58;77.57;102272.41;4996000;28;20066;-67
2024/01/29 02:11:58;;;;;;;14.43;11.57;;;9.30;99.90;;;9.57;77.68;102264.44;4995977;28;20404;-67
2024/01/29 02:14:28;;;;;;;13.25;11.80;;;9.30;99.90;;;9.56;77.46;102270.63;4996355;28;20058;-67
2024/01/29 02:16:56;;;;;;;15.97;12.20;;;9.20;99.90;;;9.47;77.62;102273.03;4995975;28;20377;-67
2024/01/29 02:19:25;;;;;;;14.73;11.70;;;9.20;99.90;;;9.55;77.85;102272.34;4995814;28;20495;-67
2024/01/29 02:21:54;;;;;;;17.92;11.98;;;9.20;99.90;;;9.57;77.57;102267.09;4996301;28;20050;-67
2024/01/29 02:24:24;;;;;;;15.27;12.25;;;9.30;99.90;;;9.35;77.70;102249.88;4995760;28;20050;-67
2024/01/29 02:26:53;;;;;;;14.77;11.60;;;9.20;99.90;;;9.42;78.04;102265.03;4996010;28;20060;-67
2024/01/29 02:29:21;;;;;;;13.05;11.50;;;9.20;99.90;;;9.44;78.41;102272.97;4995591;28;20344;-67
2024/01/29 02:31:49;;;;;;;12.73;11.30;;;9.10;99.90;;;9.41;79.09;102268.50;4996074;28;20042;-67
2024/01/29 02:34:18;;;;;;;15.60;12.55;;;9.10;99.90;;;9.41;79.18;102263.22;4994182;28;20030;-67
2024/01/29 02:36:47;;;;;;;14.07;11.48;;;9.10;99.90;;;9.42;79.81;102265.03;4994296;28;20045;-68
2024/01/29 02:39:15;;;;;;;14.82;12.02;;;9.10;99.90;;;9.46;79.65;102273.91;4995728;28;20038;-67
2024/01/29 02:41:45;;;;;;;17.02;12.23;;;9.20;99.90;;;9.34;79.62;102253.38;4995276;28;20458;-67
2024/01/29 02:44:13;;;;;;;14.67;11.77;;;9.20;99.90;;;9.46;79.84;102280.09;4995544;28;20042;-67
2024/01/29 02:46:41;;;;;;;16.50;12.48;;;9.20;99.90;;;9.47;79.64;102275.66;4995193;28;20435;-68
2024/01/29 02:49:10;;;;;;;14.20;11.65;;;9.20;99.90;;;9.46;79.79;102273.91;4993397;28;20096;-67
2024/01/29 02:51:38;;;;;;;14.60;11.73;;;9.20;99.90;;;9.57;79.72;102272.38;4995357;28;20070;-68
2024/01/29 02:54:07;;;;;;;16.42;11.80;;;9.30;99.90;;;9.53;79.45;102268.78;4994146;28;20085;-67
2024/01/29 02:56:35;;;;;;;14.13;11.77;;;9.30;99.90;;;9.51;79.90;102265.22;4995294;28;20044;-67
2024/01/29 02:59:05;;;;;;;14.75;11.48;;;9.20;99.90;;;9.37;80.14;102278.97;4995203;28;20407;-67
2024/01/29 03:01:33;;;;;;;14.07;11.63;;;9.20;99.90;;;9.35;80.01;102278.91;4995233;28;20134;-68
2024/01/29 03:04:02;;;;;;;17.23;11.95;;;9.10;99.90;;;9.39;80.38;102285.19;4995394;28;20038;-68
2024/01/29 03:06:30;;;;;;;15.13;11.68;;;9.10;99.90;;;9.40;80.25;102290.50;4994804;28;20038;-67
2024/01/29 03:08:58;;;;;;;17.02;12.57;;;9.10;99.90;;;9.44;79.96;102284.44;4994857;28;20046;-67
2024/01/29 03:11:27;;;;;;;16.48;12.75;;;9.10;99.90;;;9.42;79.90;102290.53;4994821;28;20074;-67
2024/01/29 03:13:55;;;;;;;15.02;12.13;;;9.10;99.90;;;9.29;80.37;102268.22;4994514;28;20054;-68
2024/01/29 03:16:25;;;;;;;15.13;12.63;;;9.10;99.90;;;9.17;80.43;102273.22;4995368;28;20074;-67
2024/01/29 03:18:53;;;;;;;15.40;11.97;;;9.00;99.90;;;9.14;81.28;102293.38;4994831;28;20605;-67
2024/01/29 03:21:22;;;;;;;15.32;12.75;;;8.90;99.90;;;9.18;81.45;102304.03;4994897;28;20125;-67
2024/01/29 03:23:50;;;;;;;17.73;12.15;;;8.90;99.90;;;9.19;81.40;102297.91;4994520;28;20416;-67
2024/01/29 03:26:18;;;;;;;14.32;12.20;;;9.00;99.90;;;9.26;81.30;102309.50;4994513;28;20046;-67
2024/01/29 03:28:47;;;;;;;15.45;12.52;;;9.00;99.90;;;9.17;81.40;102315.47;4994852;28;20068;-67
2024/01/29 03:31:15;;;;;;;13.25;11.73;;;9.00;99.90;;;9.32;81.66;102313.19;4994500;28;20066;-67
2024/01/29 03:33:45;;;;;;;16.10;12.32;;;9.00;99.90;;;9.39;81.17;102312.47;4994626;28;20042;-68
2024/01/29 03:36:12;;;;;;;14.10;12.13;;;9.10;99.90;;;9.34;81.02;102303.56;4994615;28;20087;-67
2024/01/29 03:38:41;;;;;;;15.77;12.40;;;9.10;99.90;;;9.27;80.82;102293.69;4994564;28;20092;-67
2024/01/29 03:41:09;;;;;;;14.02;12.52;;;9.10;99.90;;;9.40;80.81;102314.28;4994537;28;20077;-67
2024/01/29 03:43:38;;;;;;;23.77;12.30;;;9.10;99.90;;;9.39;80.57;102309.81;4994402;28;20112;-67
2024/01/29 03:46:06;;;;;;;15.32;12.10;;;9.10;99.90;;;9.38;80.56;102309.78;4992857;28;20051;-67
2024/01/29 03:48:35;;;;;;;16.52;12.45;;;9.00;99.90;;;9.26;80.66;102297.19;4994080;28;20046;-67
2024/01/29 03:51:05;;;;;;;14.77;12.23;;;9.00;99.90;;;9.34;80.24;102308.84;4993240;28;20049;-67
2024/01/29 03:53:33;;;;;;;14.63;12.43;;;9.00;99.90;;;9.33;80.26;102307.03;4994909;28;20046;-67
2024/01/29 03:56:02;;;;;;;16.30;12.32;;;9.00;99.90;;;9.30;80.39;102306.06;4993978;28;20120;-67
2024/01/29 03:58:30;;;;;;;18.25;12.55;;;9.00;99.90;;;9.33;80.85;102304.41;4994218;28;20042;-68
2024/01/29 04:00:59;;;;;;;16.25;11.60;;;9.00;99.90;;;9.34;80.39;102297.38;4994417;28;20042;-68
2024/01/29 04:03:27;;;;;;;15.85;12.45;;;9.10;99.90;;;9.35;80.68;102291.25;4994083;28;20101;-67
2024/01/29 04:05:56;;;;;;;16.00;11.50;;;9.00;99.90;;;9.39;80.71;102291.34;4993792;28;20074;-68
2024/01/29 04:08:25;;;;;;;16.23;12.25;;;9.10;99.90;;;9.40;80.46;102287.84;4993996;28;20054;-68
2024/01/29 04:10:54;;;;;;;13.90;11.93;;;9.10;99.90;;;9.41;80.35;102278.16;4994064;28;20053;-67
2024/01/29 04:13:24;;;;;;;15.70;11.98;;;9.10;99.90;;;9.45;80.35;102286.19;4992265;28;20367;-67
2024/01/29 04:15:53;;;;;;;14.27;11.88;;;9.10;99.90;;;9.48;79.69;102285.38;4993946;28;20034;-67
2024/01/29 04:18:22;;;;;;;14.02;11.25;;;9.20;99.90;;;9.49;79.75;102273.94;4994401;28;20046;-67
2024/01/29 04:20:50;;;;;;;15.60;12.20;;;9.20;99.90;;;9.46;79.46;102288.00;4993863;28;20038;-68
2024/01/29 04:23:19;;;;;;;15.30;12.15;;;9.20;99.90;;;9.44;79.86;102283.53;4993883;28;20070;-66
2024/01/29 04:25:48;;;;;;;14.18;12.00;;;9.10;99.90;;;9.42;80.07;102286.16;4994026;28;20495;-68
2024/01/29 04:28:17;;;;;;;14.77;12.13;;;9.10;99.90;;;9.44;79.99;102291.47;4993907;28;20108;-67
2024/01/29 04:30:46;;;;;;;15.82;12.30;;;9.10;99.90;;;9.43;79.92;102281.72;4993678;28;20046;-67
2024/01/29 04:33:14;;;;;;;12.57;11.27;;;9.10;99.90;;;9.36;79.56;102280.72;4993492;28;20046;-67
2024/01/29 04:35:42;;;;;;;15.30;11.95;;;9.10;99.90;;;9.35;79.95;102292.13;4993655;28;20118;-67
2024/01/29 04:38:11;;;;;;;13.80;11.45;;;9.00;99.90;;;9.34;80.02;102287.72;4993904;28;20048;-68
2024/01/29 04:40:41;;;;;;;15.85;12.23;;;9.00;99.90;;;9.18;80.31;102272.34;4993456;28;20462;-67
2024/01/29 04:43:11;;;;;;;15.98;12.25;;;9.00;99.90;;;9.01;80.47;102277.25;4993457;28;20544;-68
2024/01/29 04:45:39;;;;;;;16.38;13.05;;;8.80;99.90;;;8.94;80.95;102266.50;4993406;28;20122;-67
2024/01/29 04:48:08;;;;;;;15.98;12.65;;;8.70;99.90;;;8.27;81.44;102158.41;4993142;28;20459;-67
2024/01/29 04:50:37;;;;;;;15.13;11.98;;;8.60;99.90;;;8.92;82.24;102276.13;4993458;28;20050;-67
2024/01/29 04:53:05;;;;;;;14.75;12.40;;;8.60;99.90;;;8.95;82.70;102271.81;4993770;28;20042;-68
2024/01/29 04:55:33;;;;;;;16.55;12.20;;;8.60;99.90;;;8.97;82.58;102275.38;4993264;28;20512;-67
2024/01/29 04:58:02;;;;;;;15.88;12.05;;;8.70;99.90;;;8.97;82.54;102279.75;4993210;28;20487;-67
2024/01/29 05:00:32;;;;;;;16.05;11.98;;;8.70;99.90;;;9.02;82.51;102283.38;4993241;28;20042;-68
2024/01/29 05:03:00;;;;;;;14.80;11.82;;;8.70;99.90;;;9.04;82.74;102285.22;4993657;28;20104;-67
2024/01/29 05:05:28;;;;;;;14.82;12.45;;;8.80;99.90;;;9.04;82.22;102282.59;4993441;28;20046;-67
2024/01/29 05:07:57;;;;;;;17.65;12.60;;;8.80;99.90;;;9.08;82.50;102294.09;4993561;28;20124;-67
2024/01/29 05:10:25;;;;;;;15.27;12.75;;;8.80;99.90;;;8.58;82.85;102226.00;4993293;28;20117;-68
2024/01/29 05:12:54;;;;;;;16.95;13.98;;;8.80;99.90;;;9.06;83.35;102314.28;4996819;28;20101;-67
2024/01/29 05:15:22;;;;;;;16.65;13.35;;;8.80;99.90;;;9.02;83.34;102317.69;4996101;28;20050;-67
2024/01/29 05:17:52;;;;;;;15.45;12.82;;;8.80;99.90;;;8.99;83.04;102315.00;4995944;28;20495;-67
2024/01/29 05:20:20;;;;;;;14.25;12.75;;;8.70;99.90;;;9.02;83.07;102313.31;4996965;28;20046;-67
2024/01/29 05:22:49;;;;;;;17.63;14.00;;;8.70;99.90;;;9.01;83.02;102315.94;4996870;28;20044;-67
2024/01/29 05:25:17;;;;;;;14.73;12.23;;;8.70;99.90;;;8.99;82.83;102322.91;4997190;28;20125;-68
2024/01/29 05:27:45;;;;;;;16.58;13.35;;;8.70;99.90;;;8.94;82.97;102329.84;4996642;28;20427;-67
2024/01/29 05:30:15;;;;;;;18.00;13.52;;;8.60;99.90;;;8.89;83.08;102326.16;4995579;28;20484;-68
2024/01/29 05:32:43;;;;;;;16.33;12.70;;;8.60;99.90;;;8.88;83.45;102327.91;4996970;28;20666;-67
2024/01/29 05:35:14;;;;;;;15.00;12.60;;;8.60;99.90;;;8.78;83.78;102314.47;4996623;28;20046;-68
2024/01/29 05:37:42;;;;;;;17.50;12.25;;;8.60;99.90;;;8.79;83.52;102327.69;4996976;28;20088;-67
2024/01/29 05:40:12;;;;;;;17.50;12.82;;;8.50;99.90;;;8.72;83.35;102324.84;4996499;28;20041;-68
2024/01/29 05:42:40;;;;;;;16.30;13.02;;;8.50;99.90;;;8.73;83.45;102318.72;4996699;28;20452;-67
2024/01/29 05:45:09;;;;;;;14.63;12.68;;;8.40;99.90;;;8.73;83.79;102322.25;4996384;28;20384;-67
2024/01/29 05:47:38;;;;;;;15.82;12.60;;;8.40;99.90;;;8.71;83.84;102317.81;4996375;28;20043;-68
2024/01/29 05:50:08;;;;;;;16.55;12.85;;;8.40;99.90;;;8.72;83.91;102311.66;4996565;28;20054;-59
2024/01/29 05:52:38;;;;;;;19.38;12.93;;;8.40;99.90;;;8.69;84.33;102311.59;4996426;28;20034;-67
2024/01/29 05:55:08;;;;;;;15.80;12.63;;;8.40;99.90;;;8.67;84.89;102308.00;4996755;28;20048;-67
2024/01/29 05:57:36;;;;;;;17.23;13.40;;;8.40;99.90;;;8.55;84.71;102282.22;4996381;28;20289;-68
2024/01/29 06:00:09;;;;;;;15.55;12.73;;;8.40;99.90;;;8.68;85.39;102296.59;4996180;28;20551;-68
2024/01/29 06:02:43;;;;;;;14.80;12.77;;;8.40;99.90;;;8.72;84.85;102288.81;4996503;28;20050;-67
2024/01/29 06:05:11;;;;;;;16.27;13.20;;;8.50;99.90;;;8.82;84.84;102303.13;4996095;28;20488;-67
2024/01/29 06:07:42;;;;;;;17.02;13.60;;;8.50;99.90;;;8.76;84.55;102281.88;4996014;28;20048;-67
2024/01/29 06:10:16;;;;;;;18.60;14.00;;;8.60;99.90;;;8.92;84.07;102303.38;4995845;28;20050;-67
2024/01/29 06:12:44;;;;;;;17.85;14.15;;;8.60;99.90;;;8.96;84.05;102307.03;4995930;28;20480;-67
2024/01/29 06:15:13;;;;;;;16.13;13.40;;;8.60;99.90;;;9.02;83.86;102309.78;4996184;28;20064;-67
2024/01/29 06:17:41;;;;;;;15.90;13.02;;;8.70;99.90;;;8.85;83.48;102285.63;4996341;28;20042;-67
2024/01/29 06:20:12;;;;;;;20.75;13.85;;;8.70;99.90;;;9.04;83.38;102318.63;4995944;28;20039;-67
2024/01/29 06:22:47;;;;;;;16.15;13.77;;;8.80;99.90;;;8.99;83.29;102310.63;4994605;28;20046;-68
2024/01/29 06:25:19;;;;;;;18.40;13.85;;;8.80;99.90;;;8.90;82.99;102313.00;4994936;28;20080;-67
2024/01/29 06:27:48;;;;;;;16.48;13.63;;;8.60;99.90;;;8.72;83.31;102309.91;4995921;28;20087;-68
2024/01/29 06:30:16;;;;;;;16.88;13.52;;;8.40;99.90;;;8.74;83.67;102307.31;4994897;28;20038;-68
2024/01/29 06:32:45;;;;;;;18.33;14.40;;;8.40;99.90;;;8.82;83.81;102316.31;4995532;28;20046;-67
2024/01/29 06:35:15;;;;;;;17.60;13.98;;;8.40;99.90;;;8.86;83.95;102320.81;4995495;28;20047;-67
2024/01/29 06:37:43;;;;;;;17.85;14.07;;;8.50;99.90;;;8.86;84.06;102319.09;4995563;28;20070;-67
2024/01/29 06:40:13;;;;;;;15.48;13.80;;;8.60;99.90;;;8.87;84.41;102326.13;4995461;28;20038;-68
2024/01/29 06:42:42;;;;;;;18.20;13.52;;;8.50;99.90;;;8.72;83.99;102295.81;4994650;28;20049;-67
2024/01/29 06:45:10;;;;;;;17.25;14.10;;;8.60;99.90;;;8.95;84.30;102339.53;4995335;28;20050;-68
2024/01/29 06:47:39;;;;;;;17.17;14.43;;;8.60;99.90;;;8.94;84.36;102338.63;4995518;28;20046;-67
2024/01/29 06:50:08;;;;;;;16.63;13.88;;;8.60;99.90;;;8.86;84.43;102328.75;4995161;28;20472;-67
2024/01/29 06:52:37;;;;;;;18.00;14.07;;;8.60;99.90;;;8.93;84.11;102335.94;4994152;28;20053;-66
2024/01/29 06:55:06;;;;;;;19.92;14.15;;;8.60;99.90;;;8.91;84.25;102332.38;4995357;28;20046;-67
2024/01/29 06:57:36;;;;;;;17.40;13.27;;;8.60;99.90;;;8.90;84.89;102341.16;4994174;28;20478;-67
2024/01/29 07:00:07;;;;;;;17.30;13.97;;;8.60;99.90;;;8.91;84.68;102345.56;4995245;28;20049;-67
2024/01/29 07:02:34;;;;;;;20.02;14.10;;;8.60;99.90;;;8.92;84.95;102350.00;4995248;28;20285;-67
2024/01/29 07:05:03;;;;;;;22.98;14.13;;;8.60;99.90;;;8.95;85.18;102347.44;4994251;28;20458;-67
2024/01/29 07:07:31;;;;;;;18.45;15.55;;;8.70;99.90;;;8.94;84.90;102348.31;4995011;28;20046;-66
2024/01/29 07:10:00;;;;;;;16.58;13.90;;;8.70;99.90;;;8.97;84.79;102353.66;4994906;28;20388;-67
2024/01/29 07:12:28;;;;;;;18.33;14.32;;;8.60;99.90;;;8.97;84.78;102343.09;4993850;28;20448;-68
2024/01/29 07:14:59;;;;;;;17.50;14.05;;;8.70;99.90;;;8.88;85.44;102346.38;4995432;28;20074;-64
2024/01/29 07:17:27;;;;;;;20.27;14.57;;;8.70;99.90;;;8.81;85.62;102343.53;4995036;28;20050;-67
2024/01/29 07:19:56;;;;;;;19.48;15.10;;;8.60;99.90;;;8.68;86.11;102359.91;4994662;28;20488;-67
2024/01/29 07:22:24;;;;;;;20.58;15.07;;;8.50;99.90;;;8.66;86.43;102357.22;4994825;28;20476;-67
2024/01/29 07:24:53;;;;;;;18.35;14.50;;;8.40;99.90;;;8.62;87.20;102351.81;4994576;28;20070;-71
2024/01/29 07:27:22;;;;;;;18.23;14.23;;;8.40;99.90;;;8.66;87.16;102361.59;4995128;28;20046;-67
2024/01/29 07:29:51;;;;;;;18.88;15.65;;;8.40;99.90;;;8.70;87.85;102367.00;4994835;28;20022;-65
2024/01/29 07:32:21;;;;;;;19.02;14.48;;;8.40;99.90;;;8.73;87.24;102363.59;4994731;28;20070;-65
2024/01/29 07:34:50;;;;;;;18.08;15.25;;;8.40;99.90;;;8.73;87.88;102366.22;4994066;28;20097;-65
2024/01/29 07:37:20;;;;;;;17.00;14.30;;;8.50;99.90;;;8.84;87.50;102372.66;4995017;28;20038;-65
2024/01/29 07:39:49;;;;;;;19.77;14.65;;;8.50;99.90;;;8.91;87.67;102379.88;4994469;28;20042;-66
2024/01/29 07:42:17;;;;;;;20.42;15.02;;;8.60;99.90;;;8.98;87.47;102376.56;4994467;28;20476;-65
2024/01/29 07:44:45;;;;;;;19.25;14.32;;;8.60;99.90;;;9.04;87.51;102371.41;4994487;28;20451;-66
2024/01/29 07:47:14;;;;;;;19.70;15.43;;;8.80;99.90;;;9.08;87.11;102375.94;4994265;28;20050;-64
2024/01/29 07:49:50;;;;;;;19.77;15.48;;;8.80;99.90;;;9.15;87.16;102380.53;4992919;28;20038;-65
2024/01/29 07:52:20;;;;;;;18.48;15.15;;;8.90;99.90;;;9.15;86.75;102380.53;4994630;28;20042;-66
2024/01/29 07:54:48;;;;;;;16.85;14.82;;;8.90;99.90;;;9.17;86.53;102378.81;4993907;28;20120;-67
2024/01/29 07:57:16;;;;;;;19.08;14.95;;;8.90;99.90;;;9.04;86.72;102360.88;4994349;28;20124;-65
2024/01/29 07:59:45;;;;;;;18.83;14.90;;;8.90;99.90;;;9.18;86.96;102391.16;4994305;28;20097;-66
2024/01/29 08:02:14;;;;;;;18.95;15.35;;;8.90;99.90;;;9.15;86.81;102390.19;4994059;28;20035;-66
2024/01/29 08:04:43;;;;;;;17.52;14.60;;;8.80;99.90;;;9.19;86.66;102389.41;4993767;28;20511;-65
2024/01/29 08:07:13;;;;;;;22.38;15.25;;;8.90;99.90;;;9.17;87.01;102392.03;4992676;28;20046;-65
2024/01/29 08:09:42;;;;;;;22.88;14.63;;;8.80;99.90;;;9.18;87.29;102390.25;4993774;28;20065;-70
2024/01/29 08:12:10;;;;;;;19.42;15.43;;;8.90;99.90;;;9.11;87.25;102373.38;4994218;28;20141;-67
2024/01/29 08:14:38;;;;;;;19.10;15.23;;;8.90;99.90;;;9.18;87.09;102379.69;4993364;28;20372;-67
2024/01/29 08:17:07;;;;;;;21.60;15.77;;;8.90;99.90;;;9.13;87.79;102387.50;4993548;28;20046;-65
2024/01/29 08:19:36;;;;;;;21.42;15.43;;;8.90;99.90;;;9.21;87.87;102390.34;4993747;28;20452;-67
2024/01/29 08:22:04;;;;;;;18.92;15.10;;;8.90;99.90;;;9.25;87.92;102387.84;4993495;28;20394;-70
2024/01/29 08:24:34;;;;;;;19.58;15.13;;;9.00;99.90;;;9.33;87.87;102385.38;4992367;28;20069;-73
2024/01/29 08:27:03;;;;;;;21.13;15.35;;;9.10;99.90;;;9.43;87.60;102390.91;4993756;28;20042;-72
2024/01/29 08:29:31;;;;;;;17.73;14.90;;;9.20;99.90;;;9.50;87.21;102399.88;4993512;28;20064;-71
2024/01/29 08:32:00;;;;;;;20.02;15.40;;;9.20;99.90;;;9.46;87.32;102393.66;4993263;28;20065;-67
2024/01/29 08:34:29;;;;;;;22.65;16.08;;;9.20;99.90;;;9.50;86.91;102395.50;4992317;28;20439;-70
2024/01/29 08:36:58;;;;;;;23.75;15.63;;;9.20;99.90;;;9.45;87.25;102391.84;4994008;28;20093;-68
2024/01/29 08:39:27;;;;;;;20.05;16.02;;;9.20;99.90;;;9.33;87.54;102391.53;4993433;28;20121;-66
2024/01/29 08:41:57;;;;;;;23.48;15.88;;;9.10;99.90;;;9.31;87.83;102393.25;4993611;28;20451;-67
2024/01/29 08:44:26;;;;;;;19.02;16.17;;;9.10;99.90;;;9.03;88.48;102391.66;4993306;28;20125;-64
2024/01/29 08:46:54;;;;;;;24.38;17.30;;;8.90;99.90;;;9.01;88.96;102392.47;4992179;28;20046;-66
2024/01/29 08:49:23;;;;;;;32.47;18.27;;;8.90;99.90;;;8.82;89.73;102391.09;4990305;28;20112;-66
2024/01/29 08:51:51;;;;;;;23.42;17.15;;;8.70;99.90;;;8.68;90.86;102391.56;4991432;28;20060;-68
2024/01/29 08:54:20;;;;;;;27.15;17.33;;;8.60;99.90;;;8.52;92.04;102384.97;4990215;28;20046;-67
2024/01/29 08:56:50;;;;;;;26.20;16.48;;;8.50;99.90;;;8.32;93.59;102383.53;4991206;28;20038;-68
2024/01/29 08:59:21;;;;;;;;;;;8.20;99.90;;;8.33;94.32;102379.13;4992530;28;20050;-66
2024/01/29 09:01:49;;;;;;;22.20;16.88;;;8.20;99.90;;;8.36;94.84;102358.13;4991680;28;20252;-65
2024/01/29 09:04:18;;;;;;;20.00;16.17;;;8.30;99.90;;;8.79;94.86;102383.09;4991291;28;20073;-66
2024/01/29 09:06:46;;;;;;;23.33;16.38;;;8.60;99.90;;;8.92;93.78;102393.09;4991219;28;20043;-66
2024/01/29 09:09:15;;;;;;;19.45;16.15;;;8.80;99.90;;;9.06;93.33;102397.00;4991251;28;20042;-66
2024/01/29 09:11:44;;;;;;;21.45;16.58;;;8.90;99.90;;;9.36;93.33;102396.91;4990992;28;20129;-65
2024/01/29 09:14:15;;;;;;;20.33;15.55;;;9.10;99.90;;;9.44;91.80;102400.63;4990897;28;20157;-66
2024/01/29 09:16:45;;;;;;;18.35;15.60;;;9.30;99.90;;;9.69;91.40;102408.31;4991293;28;20042;-66
2024/01/29 09:19:14;;;;;;;21.75;16.33;;;9.50;99.90;;;9.98;90.12;102416.91;4991665;28;20064;-65
2024/01/29 09:21:48;;;;;;;19.80;15.27;;;9.70;99.90;;;10.29;89.25;102413.22;4991345;28;20038;-65
2024/01/29 09:24:18;;;;;;;24.20;15.82;;;10.00;99.90;;;10.60;87.96;102424.47;4991228;28;20034;-65
2024/01/29 09:26:46;;;;;;;21.35;15.02;;;10.30;99.90;;;10.81;86.46;102414.31;4991467;28;20097;-66
2024/01/29 09:29:15;;;;;;;25.73;15.70;;;10.60;99.90;;;11.05;85.42;102416.53;4991656;28;20108;-66
2024/01/29 09:31:44;;;;;;;20.83;15.20;;;10.80;99.90;;;11.23;84.08;102422.16;4990965;28;20046;-67
2024/01/29 09:34:13;;;;;;;19.97;15.47;;;11.00;99.90;;;11.23;83.17;102411.56;4991321;28;20104;-66
2024/01/29 09:36:42;;;;;;;18.95;15.00;;;11.00;99.90;;;11.65;82.97;102414.94;4989968;28;20137;-66
2024/01/29 09:39:10;;;;;;;20.10;15.77;;;11.40;99.90;;;11.95;81.65;102429.53;4990898;28;20054;-66
2024/01/29 09:41:39;;;;;;;21.35;14.50;;;11.70;99.90;;;12.27;80.30;102434.44;4990984;28;20066;-66
2024/01/29 09:44:08;;;;;;;20.77;14.10;;;12.00;99.90;;;12.58;79.51;102428.66;4990969;28;20121;-72
2024/01/29 09:46:40;;;;;;;17.92;14.65;;;12.40;99.90;;;12.67;77.68;102428.78;4991479;28;20042;-66
2024/01/29 09:49:10;;;;;;;18.98;14.68;;;12.50;99.90;;;12.81;77.12;102446.66;4990945;28;20038;-67
2024/01/29 09:51:40;;;;;;;19.33;14.60;;;12.60;99.90;;;13.03;76.19;102444.28;4991020;28;20070;-67
2024/01/29 09:54:11;;;;;;;24.85;14.40;;;12.80;99.90;;;13.22;75.19;102446.25;4991218;28;20046;-67
2024/01/29 09:56:39;;;;;;;;;;;13.00;99.90;;;13.35;74.73;102472.09;4991679;28;20038;-67
2024/01/29 09:59:08;;;;;;;20.30;14.55;;;13.20;99.90;;;13.46;74.45;102457.13;4995090;28;19925;-67
2024/01/29 10:01:37;;;;;;;18.58;15.15;;;13.20;99.90;;;13.53;73.79;102456.28;4994674;28;20085;-67
2024/01/29 10:04:06;;;;;;;17.98;13.60;;;13.30;99.90;;;13.55;73.65;102465.19;4994406;28;20448;-67
2024/01/29 10:06:36;;;;;;;20.58;15.40;;;13.30;99.90;;;13.56;73.25;102464.31;4994020;28;20054;-67
2024/01/29 10:09:05;;;;;;;19.83;14.35;;;13.40;99.90;;;13.66;73.23;102469.69;4994411;28;20447;-67
2024/01/29 10:11:35;;;;;;;20.02;15.02;;;13.50;99.90;;;13.45;73.05;102442.03;4994097;28;20046;-67
2024/01/29 10:14:03;;;;;;;21.90;15.65;;;13.40;99.90;;;13.74;73.12;102475.97;4994182;28;20046;-67
2024/01/29 10:16:32;;;;;;;22.70;17.05;;;13.50;99.90;;;13.87;73.05;102469.88;4993973;28;20058;-68
2024/01/29 10:19:03;;;;;;;20.13;15.98;;;13.60;99.90;;;14.06;72.29;102466.47;4992868;28;20475;-66